Kyle, West Virginia
Current Conditions -  °F | °C
As of 3:52 PM on Thursday 20 Nov 2014 (Local Time) from KBLF Reporting Station
Clear Clear  
Wind Chill: 35°   Ceiling: Unl
Heat Index: 43°   Visibility: 10mi
Dew Point: 14°   Wind: 18mph
Humidity: 31%   Direction: 280°W
Pressure: 29.99"   Gusts: 31mph
Location:  37.41°N, 81.43°W
Report Text: KBLF 202052Z AUTO 28016G27KT 10SM CLR 06/M10 A2999 RMK AO2 PK WND 26028/2008 SLP161 T00611100 53004
Loading
Personal Weather Stations






























Interactive Weather Map New forecast layout! Learn more

10-Day Weather Forecast

Advertisements
Track Severe Weather on mobile